sensor_id;sensor_type;location;lat;lon;timestamp;P1;durP1;ratioP1;P2;durP2;ratioP2
62633;SDS011;48704;50.534;6.442;2023-02-28T00:01:30;5.47;;;2.30;;
62633;SDS011;48704;50.534;6.442;2023-02-28T00:03:56;5.72;;;2.58;;
62633;SDS011;48704;50.534;6.442;2023-02-28T00:06:21;5.22;;;2.60;;
62633;SDS011;48704;50.534;6.442;2023-02-28T00:08:47;6.65;;;2.88;;
62633;SDS011;48704;50.534;6.442;2023-02-28T00:11:13;9.57;;;2.72;;
62633;SDS011;48704;50.534;6.442;2023-02-28T00:13:42;4.97;;;2.40;;
62633;SDS011;48704;50.534;6.442;2023-02-28T00:16:12;6.22;;;2.65;;
62633;SDS011;48704;50.534;6.442;2023-02-28T00:18:39;5.57;;;3.13;;
62633;SDS011;48704;50.534;6.442;2023-02-28T00:21:05;6.85;;;2.95;;
62633;SDS011;48704;50.534;6.442;2023-02-28T00:23:31;5.22;;;2.47;;
62633;SDS011;48704;50.534;6.442;2023-02-28T00:25:56;6.13;;;2.85;;
62633;SDS011;48704;50.534;6.442;2023-02-28T00:28:22;5.07;;;2.72;;
62633;SDS011;48704;50.534;6.442;2023-02-28T00:30:48;5.93;;;2.58;;
62633;SDS011;48704;50.534;6.442;2023-02-28T00:33:13;4.68;;;2.38;;
62633;SDS011;48704;50.534;6.442;2023-02-28T00:35:39;5.40;;;2.55;;
62633;SDS011;48704;50.534;6.442;2023-02-28T00:38:05;7.18;;;3.17;;
62633;SDS011;48704;50.534;6.442;2023-02-28T00:40:30;6.30;;;2.55;;
62633;SDS011;48704;50.534;6.442;2023-02-28T00:42:56;6.80;;;2.75;;
62633;SDS011;48704;50.534;6.442;2023-02-28T00:45:21;5.43;;;2.55;;
62633;SDS011;48704;50.534;6.442;2023-02-28T00:47:46;3.85;;;2.42;;
62633;SDS011;48704;50.534;6.442;2023-02-28T00:50:14;6.88;;;2.90;;
62633;SDS011;48704;50.534;6.442;2023-02-28T00:52:41;7.07;;;2.70;;
62633;SDS011;48704;50.534;6.442;2023-02-28T00:55:06;6.72;;;3.25;;
62633;SDS011;48704;50.534;6.442;2023-02-28T00:57:32;3.88;;;2.15;;
62633;SDS011;48704;50.534;6.442;2023-02-28T00:59:57;7.15;;;2.90;;
62633;SDS011;48704;50.534;6.442;2023-02-28T01:02:22;5.25;;;2.65;;
62633;SDS011;48704;50.534;6.442;2023-02-28T01:04:48;4.03;;;2.72;;
62633;SDS011;48704;50.534;6.442;2023-02-28T01:07:13;8.00;;;3.10;;
62633;SDS011;48704;50.534;6.442;2023-02-28T01:09:39;4.72;;;2.50;;
62633;SDS011;48704;50.534;6.442;2023-02-28T01:12:06;6.15;;;2.53;;
62633;SDS011;48704;50.534;6.442;2023-02-28T01:14:32;4.93;;;2.53;;
62633;SDS011;48704;50.534;6.442;2023-02-28T01:16:57;4.38;;;2.55;;
62633;SDS011;48704;50.534;6.442;2023-02-28T01:19:23;7.35;;;2.90;;
62633;SDS011;48704;50.534;6.442;2023-02-28T01:21:48;8.25;;;3.35;;
62633;SDS011;48704;50.534;6.442;2023-02-28T01:24:13;6.35;;;3.15;;
62633;SDS011;48704;50.534;6.442;2023-02-28T01:26:38;5.38;;;2.92;;
62633;SDS011;48704;50.534;6.442;2023-02-28T01:29:04;5.07;;;2.80;;
62633;SDS011;48704;50.534;6.442;2023-02-28T01:31:29;4.35;;;2.20;;
62633;SDS011;48704;50.534;6.442;2023-02-28T01:33:54;4.50;;;2.75;;
62633;SDS011;48704;50.534;6.442;2023-02-28T01:36:21;7.68;;;3.03;;
62633;SDS011;48704;50.534;6.442;2023-02-28T01:38:48;5.85;;;3.00;;
62633;SDS011;48704;50.534;6.442;2023-02-28T01:41:18;9.25;;;2.90;;
62633;SDS011;48704;50.534;6.442;2023-02-28T01:46:12;6.03;;;2.60;;
62633;SDS011;48704;50.534;6.442;2023-02-28T01:48:42;7.35;;;2.92;;
62633;SDS011;48704;50.534;6.442;2023-02-28T01:51:17;4.40;;;2.60;;
62633;SDS011;48704;50.534;6.442;2023-02-28T01:53:53;5.75;;;2.67;;
62633;SDS011;48704;50.534;6.442;2023-02-28T01:56:24;4.85;;;2.92;;
62633;SDS011;48704;50.534;6.442;2023-02-28T01:58:54;5.55;;;2.75;;
62633;SDS011;48704;50.534;6.442;2023-02-28T02:01:20;6.93;;;2.72;;
62633;SDS011;48704;50.534;6.442;2023-02-28T02:03:48;7.07;;;2.65;;
62633;SDS011;48704;50.534;6.442;2023-02-28T02:06:20;5.18;;;3.30;;
62633;SDS011;48704;50.534;6.442;2023-02-28T02:08:47;5.18;;;2.80;;
62633;SDS011;48704;50.534;6.442;2023-02-28T02:11:12;7.38;;;3.30;;
62633;SDS011;48704;50.534;6.442;2023-02-28T02:35:41;5.38;;;3.35;;
62633;SDS011;48704;50.534;6.442;2023-02-28T02:43:22;5.00;;;2.92;;
62633;SDS011;48704;50.534;6.442;2023-02-28T02:46:12;5.57;;;3.28;;
62633;SDS011;48704;50.534;6.442;2023-02-28T02:48:41;7.40;;;3.42;;
62633;SDS011;48704;50.534;6.442;2023-02-28T02:51:11;5.00;;;2.85;;
62633;SDS011;48704;50.534;6.442;2023-02-28T02:53:41;6.82;;;2.63;;
62633;SDS011;48704;50.534;6.442;2023-02-28T02:56:14;9.25;;;3.42;;
62633;SDS011;48704;50.534;6.442;2023-02-28T02:58:43;5.97;;;3.28;;
62633;SDS011;48704;50.534;6.442;2023-02-28T03:01:15;5.60;;;2.83;;
62633;SDS011;48704;50.534;6.442;2023-02-28T03:03:54;7.22;;;3.25;;
62633;SDS011;48704;50.534;6.442;2023-02-28T03:06:21;6.07;;;3.17;;
62633;SDS011;48704;50.534;6.442;2023-02-28T03:08:47;6.32;;;3.17;;
62633;SDS011;48704;50.534;6.442;2023-02-28T03:11:12;7.30;;;2.97;;
62633;SDS011;48704;50.534;6.442;2023-02-28T03:16:26;5.75;;;2.97;;
62633;SDS011;48704;50.534;6.442;2023-02-28T03:19:06;5.68;;;3.08;;
62633;SDS011;48704;50.534;6.442;2023-02-28T03:21:40;7.28;;;3.22;;
62633;SDS011;48704;50.534;6.442;2023-02-28T03:24:12;7.55;;;2.97;;
62633;SDS011;48704;50.534;6.442;2023-02-28T03:26:46;8.77;;;3.75;;
62633;SDS011;48704;50.534;6.442;2023-02-28T03:34:52;4.65;;;2.70;;
62633;SDS011;48704;50.534;6.442;2023-02-28T03:37:26;6.57;;;3.08;;
62633;SDS011;48704;50.534;6.442;2023-02-28T03:42:57;5.18;;;2.95;;
62633;SDS011;48704;50.534;6.442;2023-02-28T03:45:31;5.13;;;2.65;;
62633;SDS011;48704;50.534;6.442;2023-02-28T03:48:06;5.28;;;3.03;;
62633;SDS011;48704;50.534;6.442;2023-02-28T03:50:42;6.25;;;2.90;;
62633;SDS011;48704;50.534;6.442;2023-02-28T03:53:12;5.35;;;3.00;;
62633;SDS011;48704;50.534;6.442;2023-02-28T04:01:11;7.78;;;2.90;;
62633;SDS011;48704;50.534;6.442;2023-02-28T04:03:41;7.40;;;3.00;;
62633;SDS011;48704;50.534;6.442;2023-02-28T04:06:08;6.38;;;3.33;;
62633;SDS011;48704;50.534;6.442;2023-02-28T04:08:41;5.82;;;3.20;;
62633;SDS011;48704;50.534;6.442;2023-02-28T04:11:07;5.45;;;2.83;;
62633;SDS011;48704;50.534;6.442;2023-02-28T04:16:08;6.38;;;2.92;;
62633;SDS011;48704;50.534;6.442;2023-02-28T04:18:38;5.13;;;2.83;;
62633;SDS011;48704;50.534;6.442;2023-02-28T04:21:04;6.97;;;3.47;;
62633;SDS011;48704;50.534;6.442;2023-02-28T04:23:30;5.63;;;3.13;;
62633;SDS011;48704;50.534;6.442;2023-02-28T04:25:56;6.28;;;3.08;;
62633;SDS011;48704;50.534;6.442;2023-02-28T04:28:21;6.78;;;3.13;;
62633;SDS011;48704;50.534;6.442;2023-02-28T04:30:47;19.38;;;7.65;;
62633;SDS011;48704;50.534;6.442;2023-02-28T04:33:12;5.78;;;3.83;;
62633;SDS011;48704;50.534;6.442;2023-02-28T04:35:37;7.60;;;3.20;;
62633;SDS011;48704;50.534;6.442;2023-02-28T04:38:03;6.45;;;3.10;;
62633;SDS011;48704;50.534;6.442;2023-02-28T04:40:28;5.20;;;3.35;;
62633;SDS011;48704;50.534;6.442;2023-02-28T04:42:53;7.82;;;3.80;;
62633;SDS011;48704;50.534;6.442;2023-02-28T04:45:18;4.55;;;2.70;;
62633;SDS011;48704;50.534;6.442;2023-02-28T04:47:44;6.25;;;3.45;;
62633;SDS011;48704;50.534;6.442;2023-02-28T04:50:09;5.05;;;2.90;;
62633;SDS011;48704;50.534;6.442;2023-02-28T04:52:35;5.55;;;3.38;;
62633;SDS011;48704;50.534;6.442;2023-02-28T04:55:00;6.57;;;3.03;;
62633;SDS011;48704;50.534;6.442;2023-02-28T04:57:26;4.97;;;3.25;;
62633;SDS011;48704;50.534;6.442;2023-02-28T04:59:51;6.38;;;3.28;;
62633;SDS011;48704;50.534;6.442;2023-02-28T05:02:17;5.30;;;3.00;;
62633;SDS011;48704;50.534;6.442;2023-02-28T05:04:42;5.68;;;3.38;;
62633;SDS011;48704;50.534;6.442;2023-02-28T05:07:07;4.93;;;3.25;;
62633;SDS011;48704;50.534;6.442;2023-02-28T05:09:33;6.03;;;3.33;;
62633;SDS011;48704;50.534;6.442;2023-02-28T05:11:58;6.40;;;3.45;;
62633;SDS011;48704;50.534;6.442;2023-02-28T05:14:23;7.68;;;3.30;;
62633;SDS011;48704;50.534;6.442;2023-02-28T05:16:48;5.90;;;3.22;;
62633;SDS011;48704;50.534;6.442;2023-02-28T05:19:14;6.25;;;3.28;;
62633;SDS011;48704;50.534;6.442;2023-02-28T05:21:40;5.75;;;3.60;;
62633;SDS011;48704;50.534;6.442;2023-02-28T05:24:10;8.18;;;2.90;;
62633;SDS011;48704;50.534;6.442;2023-02-28T05:26:37;6.45;;;3.05;;
62633;SDS011;48704;50.534;6.442;2023-02-28T05:29:04;6.25;;;3.15;;
62633;SDS011;48704;50.534;6.442;2023-02-28T05:31:30;4.93;;;3.00;;
62633;SDS011;48704;50.534;6.442;2023-02-28T05:33:55;7.72;;;3.00;;
62633;SDS011;48704;50.534;6.442;2023-02-28T05:36:20;5.00;;;2.75;;
62633;SDS011;48704;50.534;6.442;2023-02-28T05:38:47;5.55;;;3.22;;
62633;SDS011;48704;50.534;6.442;2023-02-28T05:41:13;7.53;;;3.10;;
62633;SDS011;48704;50.534;6.442;2023-02-28T05:43:39;6.45;;;3.60;;
62633;SDS011;48704;50.534;6.442;2023-02-28T05:46:05;10.70;;;3.55;;
62633;SDS011;48704;50.534;6.442;2023-02-28T05:48:31;8.15;;;3.65;;
62633;SDS011;48704;50.534;6.442;2023-02-28T05:50:58;7.13;;;3.33;;
62633;SDS011;48704;50.534;6.442;2023-02-28T05:53:23;5.47;;;3.17;;
62633;SDS011;48704;50.534;6.442;2023-02-28T05:55:49;6.60;;;3.42;;
62633;SDS011;48704;50.534;6.442;2023-02-28T05:58:14;5.57;;;3.25;;
62633;SDS011;48704;50.534;6.442;2023-02-28T06:00:39;8.57;;;3.42;;
62633;SDS011;48704;50.534;6.442;2023-02-28T06:03:04;8.25;;;3.30;;
62633;SDS011;48704;50.534;6.442;2023-02-28T06:05:30;5.93;;;3.10;;
62633;SDS011;48704;50.534;6.442;2023-02-28T06:07:55;5.53;;;3.20;;
62633;SDS011;48704;50.534;6.442;2023-02-28T06:10:20;5.50;;;3.22;;
62633;SDS011;48704;50.534;6.442;2023-02-28T06:12:46;4.53;;;3.35;;
62633;SDS011;48704;50.534;6.442;2023-02-28T06:15:15;5.93;;;3.63;;
62633;SDS011;48704;50.534;6.442;2023-02-28T06:17:42;7.70;;;3.72;;
62633;SDS011;48704;50.534;6.442;2023-02-28T06:20:08;6.57;;;3.47;;
62633;SDS011;48704;50.534;6.442;2023-02-28T06:22:35;7.00;;;3.58;;
62633;SDS011;48704;50.534;6.442;2023-02-28T06:25:01;6.20;;;2.88;;
62633;SDS011;48704;50.534;6.442;2023-02-28T06:27:26;11.45;;;4.53;;
62633;SDS011;48704;50.534;6.442;2023-02-28T06:29:53;6.82;;;3.63;;
62633;SDS011;48704;50.534;6.442;2023-02-28T06:32:20;6.75;;;3.90;;
62633;SDS011;48704;50.534;6.442;2023-02-28T06:34:46;8.13;;;3.67;;
62633;SDS011;48704;50.534;6.442;2023-02-28T06:37:11;8.60;;;3.60;;
62633;SDS011;48704;50.534;6.442;2023-02-28T06:39:37;8.63;;;4.15;;
62633;SDS011;48704;50.534;6.442;2023-02-28T06:42:02;8.32;;;3.70;;
62633;SDS011;48704;50.534;6.442;2023-02-28T06:44:27;6.00;;;3.38;;
62633;SDS011;48704;50.534;6.442;2023-02-28T06:47:00;7.78;;;3.67;;
62633;SDS011;48704;50.534;6.442;2023-02-28T06:49:28;8.20;;;3.63;;
62633;SDS011;48704;50.534;6.442;2023-02-28T06:51:54;5.30;;;3.47;;
62633;SDS011;48704;50.534;6.442;2023-02-28T06:54:20;9.30;;;3.58;;
62633;SDS011;48704;50.534;6.442;2023-02-28T06:56:45;7.43;;;4.15;;
62633;SDS011;48704;50.534;6.442;2023-02-28T06:59:11;7.97;;;3.80;;
62633;SDS011;48704;50.534;6.442;2023-02-28T07:01:37;8.25;;;3.85;;
62633;SDS011;48704;50.534;6.442;2023-02-28T07:04:03;6.68;;;3.67;;
62633;SDS011;48704;50.534;6.442;2023-02-28T07:06:30;7.30;;;3.50;;
62633;SDS011;48704;50.534;6.442;2023-02-28T07:08:56;6.05;;;2.95;;
62633;SDS011;48704;50.534;6.442;2023-02-28T07:11:22;10.38;;;3.83;;
62633;SDS011;48704;50.534;6.442;2023-02-28T07:13:50;6.63;;;3.15;;
62633;SDS011;48704;50.534;6.442;2023-02-28T07:16:16;8.40;;;3.72;;
62633;SDS011;48704;50.534;6.442;2023-02-28T07:18:41;9.38;;;4.10;;
62633;SDS011;48704;50.534;6.442;2023-02-28T07:21:08;6.53;;;3.92;;
62633;SDS011;48704;50.534;6.442;2023-02-28T07:23:35;9.63;;;3.60;;
62633;SDS011;48704;50.534;6.442;2023-02-28T07:26:00;7.10;;;3.90;;
62633;SDS011;48704;50.534;6.442;2023-02-28T07:28:26;7.32;;;3.60;;
62633;SDS011;48704;50.534;6.442;2023-02-28T07:30:51;5.75;;;3.40;;
62633;SDS011;48704;50.534;6.442;2023-02-28T07:33:17;9.13;;;3.80;;
62633;SDS011;48704;50.534;6.442;2023-02-28T07:35:42;10.77;;;3.63;;
62633;SDS011;48704;50.534;6.442;2023-02-28T07:38:07;6.68;;;3.47;;
62633;SDS011;48704;50.534;6.442;2023-02-28T07:40:33;5.20;;;3.00;;
62633;SDS011;48704;50.534;6.442;2023-02-28T07:43:00;7.82;;;3.60;;
62633;SDS011;48704;50.534;6.442;2023-02-28T07:45:26;6.15;;;3.08;;
62633;SDS011;48704;50.534;6.442;2023-02-28T07:47:53;6.68;;;3.38;;
62633;SDS011;48704;50.534;6.442;2023-02-28T07:50:19;5.63;;;3.70;;
62633;SDS011;48704;50.534;6.442;2023-02-28T07:52:44;4.10;;;3.00;;
62633;SDS011;48704;50.534;6.442;2023-02-28T07:55:10;5.10;;;3.42;;
62633;SDS011;48704;50.534;6.442;2023-02-28T07:57:36;6.38;;;3.67;;
62633;SDS011;48704;50.534;6.442;2023-02-28T08:00:05;4.55;;;3.03;;
62633;SDS011;48704;50.534;6.442;2023-02-28T08:02:32;5.47;;;3.90;;
62633;SDS011;48704;50.534;6.442;2023-02-28T08:04:57;6.90;;;3.60;;
62633;SDS011;48704;50.534;6.442;2023-02-28T08:07:22;6.07;;;3.15;;
62633;SDS011;48704;50.534;6.442;2023-02-28T08:09:47;5.28;;;2.92;;
62633;SDS011;48704;50.534;6.442;2023-02-28T08:12:13;9.30;;;4.07;;
62633;SDS011;48704;50.534;6.442;2023-02-28T08:14:38;5.50;;;3.30;;
62633;SDS011;48704;50.534;6.442;2023-02-28T08:17:04;6.80;;;3.33;;
62633;SDS011;48704;50.534;6.442;2023-02-28T08:19:30;5.38;;;2.95;;
62633;SDS011;48704;50.534;6.442;2023-02-28T08:21:55;5.70;;;3.55;;
62633;SDS011;48704;50.534;6.442;2023-02-28T08:24:21;4.60;;;3.20;;
62633;SDS011;48704;50.534;6.442;2023-02-28T08:26:47;6.32;;;3.10;;
62633;SDS011;48704;50.534;6.442;2023-02-28T08:29:12;6.32;;;2.75;;
62633;SDS011;48704;50.534;6.442;2023-02-28T08:31:37;4.60;;;3.10;;
62633;SDS011;48704;50.534;6.442;2023-02-28T08:34:13;6.22;;;3.40;;
62633;SDS011;48704;50.534;6.442;2023-02-28T08:36:40;9.43;;;3.75;;
62633;SDS011;48704;50.534;6.442;2023-02-28T08:39:06;4.82;;;3.15;;
62633;SDS011;48704;50.534;6.442;2023-02-28T08:41:32;5.45;;;3.22;;
62633;SDS011;48704;50.534;6.442;2023-02-28T08:43:58;4.47;;;2.72;;
62633;SDS011;48704;50.534;6.442;2023-02-28T08:46:23;4.15;;;2.58;;
62633;SDS011;48704;50.534;6.442;2023-02-28T08:48:53;5.30;;;3.10;;
62633;SDS011;48704;50.534;6.442;2023-02-28T08:51:20;5.03;;;2.53;;
62633;SDS011;48704;50.534;6.442;2023-02-28T08:53:51;5.60;;;3.10;;
62633;SDS011;48704;50.534;6.442;2023-02-28T08:56:26;8.73;;;3.10;;
62633;SDS011;48704;50.534;6.442;2023-02-28T08:58:53;8.80;;;4.75;;
62633;SDS011;48704;50.534;6.442;2023-02-28T09:01:24;8.50;;;3.53;;
62633;SDS011;48704;50.534;6.442;2023-02-28T09:03:52;6.28;;;3.83;;
62633;SDS011;48704;50.534;6.442;2023-02-28T09:06:19;5.75;;;3.38;;
62633;SDS011;48704;50.534;6.442;2023-02-28T09:08:46;6.32;;;3.03;;
62633;SDS011;48704;50.534;6.442;2023-02-28T09:11:12;7.32;;;3.50;;
62633;SDS011;48704;50.534;6.442;2023-02-28T09:13:38;4.18;;;2.60;;
62633;SDS011;48704;50.534;6.442;2023-02-28T09:16:05;5.13;;;2.97;;
62633;SDS011;48704;50.534;6.442;2023-02-28T09:18:33;6.63;;;3.10;;
62633;SDS011;48704;50.534;6.442;2023-02-28T09:20:59;7.20;;;3.15;;
62633;SDS011;48704;50.534;6.442;2023-02-28T09:23:28;6.90;;;3.38;;
62633;SDS011;48704;50.534;6.442;2023-02-28T09:25:54;5.68;;;3.00;;
62633;SDS011;48704;50.534;6.442;2023-02-28T09:28:19;5.28;;;2.45;;
62633;SDS011;48704;50.534;6.442;2023-02-28T09:30:47;6.20;;;3.10;;
62633;SDS011;48704;50.534;6.442;2023-02-28T09:33:15;7.38;;;3.50;;
62633;SDS011;48704;50.534;6.442;2023-02-28T09:35:42;5.32;;;3.22;;
62633;SDS011;48704;50.534;6.442;2023-02-28T09:38:08;4.65;;;2.50;;
62633;SDS011;48704;50.534;6.442;2023-02-28T09:40:35;6.18;;;2.60;;
62633;SDS011;48704;50.534;6.442;2023-02-28T09:43:04;7.43;;;3.08;;
62633;SDS011;48704;50.534;6.442;2023-02-28T09:45:37;6.45;;;3.40;;
62633;SDS011;48704;50.534;6.442;2023-02-28T09:48:12;4.55;;;2.53;;
62633;SDS011;48704;50.534;6.442;2023-02-28T09:50:48;5.03;;;2.88;;
62633;SDS011;48704;50.534;6.442;2023-02-28T09:53:22;4.90;;;2.83;;
62633;SDS011;48704;50.534;6.442;2023-02-28T09:56:03;4.75;;;3.03;;
62633;SDS011;48704;50.534;6.442;2023-02-28T10:04:22;4.93;;;2.80;;
62633;SDS011;48704;50.534;6.442;2023-02-28T10:07:20;5.40;;;3.25;;
62633;SDS011;48704;50.534;6.442;2023-02-28T10:09:57;6.75;;;3.00;;
62633;SDS011;48704;50.534;6.442;2023-02-28T10:12:25;7.35;;;3.33;;
62633;SDS011;48704;50.534;6.442;2023-02-28T10:14:52;6.57;;;3.40;;
62633;SDS011;48704;50.534;6.442;2023-02-28T10:17:21;6.53;;;3.22;;
62633;SDS011;48704;50.534;6.442;2023-02-28T10:20:04;5.30;;;3.05;;
62633;SDS011;48704;50.534;6.442;2023-02-28T10:22:40;4.95;;;2.72;;
62633;SDS011;48704;50.534;6.442;2023-02-28T10:25:19;5.68;;;2.97;;
62633;SDS011;48704;50.534;6.442;2023-02-28T10:27:47;5.18;;;3.10;;
62633;SDS011;48704;50.534;6.442;2023-02-28T10:30:12;6.55;;;2.90;;
62633;SDS011;48704;50.534;6.442;2023-02-28T10:32:43;5.65;;;2.83;;
62633;SDS011;48704;50.534;6.442;2023-02-28T10:35:16;8.13;;;3.92;;
62633;SDS011;48704;50.534;6.442;2023-02-28T10:37:44;4.95;;;3.05;;
62633;SDS011;48704;50.534;6.442;2023-02-28T10:42:42;4.95;;;2.88;;
62633;SDS011;48704;50.534;6.442;2023-02-28T10:45:20;4.60;;;2.58;;
62633;SDS011;48704;50.534;6.442;2023-02-28T10:47:51;6.78;;;3.05;;
62633;SDS011;48704;50.534;6.442;2023-02-28T10:50:37;5.43;;;2.92;;
62633;SDS011;48704;50.534;6.442;2023-02-28T10:55:58;6.85;;;3.10;;
62633;SDS011;48704;50.534;6.442;2023-02-28T10:58:47;6.22;;;2.90;;
62633;SDS011;48704;50.534;6.442;2023-02-28T11:01:58;6.30;;;2.65;;
62633;SDS011;48704;50.534;6.442;2023-02-28T11:04:19;4.72;;;2.97;;
62633;SDS011;48704;50.534;6.442;2023-02-28T11:06:48;6.75;;;2.92;;
62633;SDS011;48704;50.534;6.442;2023-02-28T11:09:23;5.70;;;3.05;;
62633;SDS011;48704;50.534;6.442;2023-02-28T11:11:54;5.65;;;2.70;;
62633;SDS011;48704;50.534;6.442;2023-02-28T11:14:21;5.63;;;2.88;;
62633;SDS011;48704;50.534;6.442;2023-02-28T11:16:50;4.45;;;2.60;;
62633;SDS011;48704;50.534;6.442;2023-02-28T11:19:18;4.68;;;2.67;;
62633;SDS011;48704;50.534;6.442;2023-02-28T11:22:00;4.85;;;2.60;;
62633;SDS011;48704;50.534;6.442;2023-02-28T11:24:29;5.40;;;2.70;;
62633;SDS011;48704;50.534;6.442;2023-02-28T11:26:58;4.20;;;2.60;;
62633;SDS011;48704;50.534;6.442;2023-02-28T11:29:25;7.30;;;3.10;;
62633;SDS011;48704;50.534;6.442;2023-02-28T11:34:33;3.58;;;2.50;;
62633;SDS011;48704;50.534;6.442;2023-02-28T11:37:00;4.03;;;2.65;;
62633;SDS011;48704;50.534;6.442;2023-02-28T11:39:30;4.97;;;2.80;;
62633;SDS011;48704;50.534;6.442;2023-02-28T11:42:04;6.07;;;3.47;;
62633;SDS011;48704;50.534;6.442;2023-02-28T11:56:33;6.13;;;3.00;;
62633;SDS011;48704;50.534;6.442;2023-02-28T11:59:10;7.90;;;2.90;;
62633;SDS011;48704;50.534;6.442;2023-02-28T12:04:53;6.88;;;2.88;;
62633;SDS011;48704;50.534;6.442;2023-02-28T12:10:36;6.85;;;3.03;;
62633;SDS011;48704;50.534;6.442;2023-02-28T12:13:18;7.68;;;3.25;;
62633;SDS011;48704;50.534;6.442;2023-02-28T12:21:25;4.47;;;2.50;;
62633;SDS011;48704;50.534;6.442;2023-02-28T12:26:48;4.95;;;2.78;;
62633;SDS011;48704;50.534;6.442;2023-02-28T12:29:17;4.32;;;2.90;;
62633;SDS011;48704;50.534;6.442;2023-02-28T12:31:53;5.05;;;2.80;;
62633;SDS011;48704;50.534;6.442;2023-02-28T12:34:46;5.10;;;3.13;;
62633;SDS011;48704;50.534;6.442;2023-02-28T12:37:20;6.82;;;3.00;;
62633;SDS011;48704;50.534;6.442;2023-02-28T12:39:51;4.68;;;2.78;;
62633;SDS011;48704;50.534;6.442;2023-02-28T12:42:36;6.18;;;2.80;;
62633;SDS011;48704;50.534;6.442;2023-02-28T12:45:22;5.43;;;3.15;;
62633;SDS011;48704;50.534;6.442;2023-02-28T12:47:50;5.20;;;2.88;;
62633;SDS011;48704;50.534;6.442;2023-02-28T12:50:29;7.32;;;3.35;;
62633;SDS011;48704;50.534;6.442;2023-02-28T12:55:46;5.70;;;2.90;;
62633;SDS011;48704;50.534;6.442;2023-02-28T13:06:28;6.30;;;3.17;;
62633;SDS011;48704;50.534;6.442;2023-02-28T13:09:13;5.13;;;2.63;;
62633;SDS011;48704;50.534;6.442;2023-02-28T13:11:47;4.68;;;2.85;;
62633;SDS011;48704;50.534;6.442;2023-02-28T13:14:20;4.68;;;3.00;;
62633;SDS011;48704;50.534;6.442;2023-02-28T13:19:22;5.43;;;3.05;;
62633;SDS011;48704;50.534;6.442;2023-02-28T13:21:50;5.25;;;2.83;;
62633;SDS011;48704;50.534;6.442;2023-02-28T13:29:28;6.05;;;3.30;;
62633;SDS011;48704;50.534;6.442;2023-02-28T13:34:39;5.63;;;2.83;;
62633;SDS011;48704;50.534;6.442;2023-02-28T13:37:32;5.88;;;3.13;;
62633;SDS011;48704;50.534;6.442;2023-02-28T13:42:35;5.38;;;2.97;;
62633;SDS011;48704;50.534;6.442;2023-02-28T13:47:40;5.88;;;3.50;;
62633;SDS011;48704;50.534;6.442;2023-02-28T13:50:15;4.57;;;2.83;;
62633;SDS011;48704;50.534;6.442;2023-02-28T14:06:29;5.00;;;3.22;;
62633;SDS011;48704;50.534;6.442;2023-02-28T14:11:42;6.28;;;3.10;;
62633;SDS011;48704;50.534;6.442;2023-02-28T14:14:09;6.00;;;3.17;;
62633;SDS011;48704;50.534;6.442;2023-02-28T14:16:54;4.75;;;2.88;;
62633;SDS011;48704;50.534;6.442;2023-02-28T14:19:27;5.15;;;3.10;;
62633;SDS011;48704;50.534;6.442;2023-02-28T14:24:31;5.28;;;3.40;;
62633;SDS011;48704;50.534;6.442;2023-02-28T14:35:39;5.10;;;3.08;;
62633;SDS011;48704;50.534;6.442;2023-02-28T14:38:20;6.47;;;3.42;;
62633;SDS011;48704;50.534;6.442;2023-02-28T14:40:51;5.00;;;3.25;;
62633;SDS011;48704;50.534;6.442;2023-02-28T14:43:22;6.90;;;3.05;;
62633;SDS011;48704;50.534;6.442;2023-02-28T14:45:53;4.70;;;3.05;;
62633;SDS011;48704;50.534;6.442;2023-02-28T14:48:21;7.13;;;3.47;;
62633;SDS011;48704;50.534;6.442;2023-02-28T14:50:49;6.00;;;3.60;;
62633;SDS011;48704;50.534;6.442;2023-02-28T14:53:18;6.72;;;2.88;;
62633;SDS011;48704;50.534;6.442;2023-02-28T14:55:47;5.15;;;3.13;;
62633;SDS011;48704;50.534;6.442;2023-02-28T14:58:50;5.38;;;3.53;;
62633;SDS011;48704;50.534;6.442;2023-02-28T15:01:05;7.10;;;3.42;;
62633;SDS011;48704;50.534;6.442;2023-02-28T15:03:36;5.13;;;2.88;;
62633;SDS011;48704;50.534;6.442;2023-02-28T15:06:04;4.88;;;3.00;;
62633;SDS011;48704;50.534;6.442;2023-02-28T15:08:41;5.28;;;3.28;;
62633;SDS011;48704;50.534;6.442;2023-02-28T15:11:07;4.45;;;2.80;;
62633;SDS011;48704;50.534;6.442;2023-02-28T15:13:42;4.75;;;2.75;;
62633;SDS011;48704;50.534;6.442;2023-02-28T15:21:24;5.95;;;2.97;;
62633;SDS011;48704;50.534;6.442;2023-02-28T15:23:54;6.75;;;3.25;;
62633;SDS011;48704;50.534;6.442;2023-02-28T15:26:29;8.15;;;3.10;;
62633;SDS011;48704;50.534;6.442;2023-02-28T15:28:59;4.88;;;3.17;;
62633;SDS011;48704;50.534;6.442;2023-02-28T15:31:32;4.72;;;3.25;;
62633;SDS011;48704;50.534;6.442;2023-02-28T15:34:02;6.32;;;3.22;;
62633;SDS011;48704;50.534;6.442;2023-02-28T15:36:30;6.00;;;2.90;;
62633;SDS011;48704;50.534;6.442;2023-02-28T15:38:58;6.43;;;3.17;;
62633;SDS011;48704;50.534;6.442;2023-02-28T15:41:28;5.38;;;3.17;;
62633;SDS011;48704;50.534;6.442;2023-02-28T15:46:44;7.10;;;3.05;;
62633;SDS011;48704;50.534;6.442;2023-02-28T15:49:20;4.63;;;2.90;;
62633;SDS011;48704;50.534;6.442;2023-02-28T15:51:48;4.90;;;2.92;;
62633;SDS011;48704;50.534;6.442;2023-02-28T15:54:17;6.25;;;3.17;;
62633;SDS011;48704;50.534;6.442;2023-02-28T15:56:47;5.82;;;3.22;;
62633;SDS011;48704;50.534;6.442;2023-02-28T15:59:18;5.95;;;2.95;;
62633;SDS011;48704;50.534;6.442;2023-02-28T16:01:46;6.05;;;3.45;;
62633;SDS011;48704;50.534;6.442;2023-02-28T16:04:18;5.43;;;3.10;;
62633;SDS011;48704;50.534;6.442;2023-02-28T16:06:45;5.30;;;3.47;;
62633;SDS011;48704;50.534;6.442;2023-02-28T16:09:12;5.80;;;3.00;;
62633;SDS011;48704;50.534;6.442;2023-02-28T16:11:45;6.10;;;3.50;;
62633;SDS011;48704;50.534;6.442;2023-02-28T16:14:15;6.53;;;3.10;;
62633;SDS011;48704;50.534;6.442;2023-02-28T16:16:46;4.07;;;3.33;;
62633;SDS011;48704;50.534;6.442;2023-02-28T16:19:13;4.78;;;2.83;;
62633;SDS011;48704;50.534;6.442;2023-02-28T16:21:38;6.32;;;3.33;;
62633;SDS011;48704;50.534;6.442;2023-02-28T16:24:03;5.07;;;3.63;;
62633;SDS011;48704;50.534;6.442;2023-02-28T16:26:29;4.68;;;2.90;;
62633;SDS011;48704;50.534;6.442;2023-02-28T16:28:54;6.88;;;3.67;;
62633;SDS011;48704;50.534;6.442;2023-02-28T16:31:20;6.88;;;3.92;;
62633;SDS011;48704;50.534;6.442;2023-02-28T16:33:45;35.00;;;14.15;;
62633;SDS011;48704;50.534;6.442;2023-02-28T16:36:15;78.28;;;30.65;;
62633;SDS011;48704;50.534;6.442;2023-02-28T16:38:42;69.55;;;27.25;;
62633;SDS011;48704;50.534;6.442;2023-02-28T16:41:07;95.82;;;37.10;;
62633;SDS011;48704;50.534;6.442;2023-02-28T16:43:44;19.83;;;11.82;;
62633;SDS011;48704;50.534;6.442;2023-02-28T16:46:11;18.27;;;10.90;;
62633;SDS011;48704;50.534;6.442;2023-02-28T16:48:37;10.98;;;7.00;;
62633;SDS011;48704;50.534;6.442;2023-02-28T16:51:02;8.70;;;5.65;;
62633;SDS011;48704;50.534;6.442;2023-02-28T16:53:29;10.13;;;7.05;;
62633;SDS011;48704;50.534;6.442;2023-02-28T16:55:54;6.93;;;4.50;;
62633;SDS011;48704;50.534;6.442;2023-02-28T16:58:20;7.57;;;4.32;;
62633;SDS011;48704;50.534;6.442;2023-02-28T17:00:46;9.20;;;5.90;;
62633;SDS011;48704;50.534;6.442;2023-02-28T17:03:25;8.00;;;5.63;;
62633;SDS011;48704;50.534;6.442;2023-02-28T17:05:52;13.95;;;7.95;;
62633;SDS011;48704;50.534;6.442;2023-02-28T17:08:17;16.52;;;9.25;;
62633;SDS011;48704;50.534;6.442;2023-02-28T17:10:43;20.30;;;12.77;;
62633;SDS011;48704;50.534;6.442;2023-02-28T17:13:08;11.75;;;7.20;;
62633;SDS011;48704;50.534;6.442;2023-02-28T17:15:34;12.45;;;8.57;;
62633;SDS011;48704;50.534;6.442;2023-02-28T17:18:00;16.48;;;10.15;;
62633;SDS011;48704;50.534;6.442;2023-02-28T17:20:25;10.45;;;5.95;;
62633;SDS011;48704;50.534;6.442;2023-02-28T17:22:52;39.67;;;19.88;;
62633;SDS011;48704;50.534;6.442;2023-02-28T17:25:18;57.45;;;26.98;;
62633;SDS011;48704;50.534;6.442;2023-02-28T17:27:44;50.60;;;26.52;;